Hlavní strana
METAR-TAF:

METAR-TAF

Letiště :

Monroe, Severní Karolína, Spojené státy americké

zeměpisná šířka: 35-01-01N, zeměpisná délka: 080-37-14W, výška: 207 m

Aktuální stav počasí

Zpráva byla vytvořena před 24 minutami, v 09:53 UTC
Bezvětří
Teplota 21°C
Vlhkost vzduchu 94%
Tlak 1018 hPa
Viditelnost: 16.1 km
Oblačno až skoro zataženo ve výšce 700 ft

METAR: KEQY 070953Z AUTO 00000KT 10SM BKN007 21/20 A3007 RMK AO2 CIG 005V010 SLP182 T02110200

Čas: 06:17 (10:17 UTC)


TAF: chybějící

Stav a předpovědi počasí z více než 4 000 letišť (zprávy METAR a TAF).

Červené a žluté tečky na mapě představují dostupné meteorologické stanice.

Když kurzor umístíte na tečku, zobrazí se název stanice.

Pak kliknutím zobrazíte stav a předpověď počasí.

Chcete-li změnit mapu, kliknutím na zelené tlačítko se znaménkem +mapu přiblížíte, kliknutím na zelené tlačítko se znaménkem – mapu oddálíte a kliknutím na zelené šipky přejdete na sousední mapy.


METAR-TAF: